createdAt,value
2022-09-09T00:01:12.836Z,1.25
2022-09-09T00:03:48.926Z,1.13
2022-09-09T00:06:24.712Z,1.05
2022-09-09T00:09:07.320Z,1.60
2022-09-09T00:11:41.254Z,1.38
2022-09-09T00:14:15.672Z,1.13
2022-09-09T00:16:47.785Z,0.98
2022-09-09T00:19:23.777Z,1.60
2022-09-09T00:22:00.001Z,0.90
2022-09-09T00:24:41.457Z,0.70
2022-09-09T00:27:13.723Z,0.95
2022-09-09T00:29:47.349Z,0.80
2022-09-09T00:32:18.414Z,1.10
2022-09-09T00:34:54.759Z,1.23
2022-09-09T00:37:26.370Z,1.42
2022-09-09T00:40:01.858Z,0.90
2022-09-09T00:42:37.827Z,1.27
2022-09-09T00:45:15.856Z,1.00
2022-09-09T00:47:50.111Z,1.42
2022-09-09T00:52:53.391Z,1.25
2022-09-09T00:55:30.917Z,1.00
2022-09-09T00:58:01.149Z,1.58
2022-09-09T01:00:32.631Z,1.65
2022-09-09T01:03:21.777Z,1.38
2022-09-09T01:05:56.081Z,1.30
2022-09-09T01:08:32.799Z,1.20
2022-09-09T01:11:05.973Z,1.42
2022-09-09T01:13:37.845Z,1.23
2022-09-09T01:16:15.013Z,1.20
2022-09-09T01:18:49.219Z,1.50
2022-09-09T01:21:26.983Z,1.15
2022-09-09T01:24:12.809Z,1.55
2022-09-09T01:26:59.515Z,1.05
2022-09-09T01:29:30.531Z,1.38
2022-09-09T01:32:01.857Z,1.73
2022-09-09T01:34:35.143Z,1.13
2022-09-09T01:37:07.365Z,1.30
2022-09-09T01:39:37.876Z,1.30
2022-09-09T01:42:16.597Z,1.10
2022-09-09T01:44:47.183Z,1.20
2022-09-09T01:47:19.214Z,1.67
2022-09-09T01:50:11.686Z,1.15
2022-09-09T01:52:42.116Z,1.10
2022-09-09T01:55:16.472Z,1.45
2022-09-09T01:57:59.674Z,1.42
2022-09-09T02:00:30.262Z,1.33
2022-09-09T02:03:05.236Z,1.92
2022-09-09T02:05:51.526Z,1.55
2022-09-09T02:08:30.589Z,1.35
2022-09-09T02:11:10.201Z,1.00
2022-09-09T02:13:49.953Z,1.10
2022-09-09T02:16:24.824Z,1.05
2022-09-09T02:18:58.177Z,1.42
2022-09-09T02:21:38.512Z,1.15
2022-09-09T02:24:10.876Z,0.93
2022-09-09T02:26:48.897Z,1.00
2022-09-09T02:29:27.196Z,1.42
2022-09-09T02:32:01.859Z,1.90
2022-09-09T02:34:41.024Z,1.13
2022-09-09T02:37:12.684Z,1.10
2022-09-09T02:39:45.529Z,1.00
2022-09-09T02:42:20.107Z,1.30
2022-09-09T02:44:52.712Z,1.23
2022-09-09T02:47:29.607Z,0.95
2022-09-09T02:50:11.531Z,0.88
2022-09-09T02:52:55.064Z,1.30
2022-09-09T02:55:33.312Z,1.02
2022-09-09T02:58:07.001Z,0.90
2022-09-09T03:00:40.527Z,1.45
2022-09-09T03:03:12.408Z,1.40
2022-09-09T03:05:44.171Z,0.70
2022-09-09T03:08:15.404Z,1.13
2022-09-09T03:10:46.598Z,1.10
2022-09-09T03:13:20.273Z,1.10
2022-09-09T03:15:52.980Z,1.10
2022-09-09T03:18:25.255Z,0.77
2022-09-09T03:20:58.569Z,1.00
2022-09-09T03:23:29.153Z,0.90
2022-09-09T03:26:01.333Z,0.85
2022-09-09T03:28:40.900Z,0.73
2022-09-09T03:31:13.865Z,1.00
2022-09-09T03:36:18.316Z,1.30
2022-09-09T03:38:48.616Z,0.93
2022-09-09T03:41:19.416Z,0.77
2022-09-09T03:43:50.065Z,0.57
2022-09-09T03:46:23.771Z,0.68
2022-09-09T03:48:54.673Z,0.95
2022-09-09T03:51:25.545Z,0.82
2022-09-09T03:53:59.096Z,1.02
2022-09-09T03:56:30.894Z,1.25
2022-09-09T03:59:01.032Z,0.98
2022-09-09T04:01:33.881Z,0.90
2022-09-09T04:04:04.164Z,1.92
2022-09-09T04:06:34.497Z,1.33
2022-09-09T04:09:05.808Z,1.65
2022-09-09T04:11:38.155Z,1.15
2022-09-09T04:14:08.628Z,0.95
2022-09-09T04:16:45.744Z,0.93
2022-09-09T04:19:16.456Z,0.85
2022-09-09T04:21:50.057Z,1.42
2022-09-09T04:24:20.012Z,1.15
2022-09-09T04:26:50.145Z,0.90
2022-09-09T04:29:20.659Z,0.85
2022-09-09T04:31:53.748Z,1.13
2022-09-09T04:34:24.145Z,1.30
2022-09-09T04:36:56.210Z,1.02
2022-09-09T04:39:26.645Z,0.70
2022-09-09T04:41:56.843Z,1.27
2022-09-09T04:44:27.020Z,0.73
2022-09-09T04:47:00.654Z,1.00
2022-09-09T04:49:32.533Z,1.08
2022-09-09T04:52:03.075Z,0.70
2022-09-09T04:54:34.085Z,0.77
2022-09-09T04:57:04.295Z,0.75
2022-09-09T04:59:34.547Z,0.70
2022-09-09T05:02:09.229Z,1.02
2022-09-09T05:04:39.379Z,1.15
2022-09-09T05:07:10.329Z,0.95
2022-09-09T05:09:40.584Z,0.90
2022-09-09T05:12:12.126Z,1.00
2022-09-09T05:14:47.628Z,1.05
2022-09-09T05:17:20.394Z,1.17
2022-09-09T05:19:51.737Z,1.00
2022-09-09T05:22:24.349Z,0.90
2022-09-09T05:24:56.903Z,1.33
2022-09-09T05:27:28.098Z,1.08
2022-09-09T05:29:58.614Z,1.10
2022-09-09T05:32:34.388Z,1.48
2022-09-09T05:35:05.229Z,1.00
2022-09-09T05:37:36.040Z,1.13
2022-09-09T05:40:08.299Z,1.17
2022-09-09T05:42:39.995Z,0.88
2022-09-09T05:45:11.450Z,1.13
2022-09-09T05:47:45.238Z,0.82
2022-09-09T05:50:17.890Z,1.17
2022-09-09T05:52:49.153Z,1.10
2022-09-09T05:55:19.402Z,0.80
2022-09-09T05:57:53.002Z,0.77
2022-09-09T06:02:58.245Z,0.75
2022-09-09T06:05:29.629Z,1.10
2022-09-09T06:08:00.416Z,0.88
2022-09-09T06:10:30.630Z,0.95
2022-09-09T06:13:01.057Z,1.00
2022-09-09T06:15:32.841Z,0.90
2022-09-09T06:18:05.812Z,1.08
2022-09-09T06:20:36.061Z,0.88
2022-09-09T06:23:07.864Z,1.00
2022-09-09T06:25:40.267Z,0.90
2022-09-09T06:28:10.698Z,0.93
2022-09-09T06:30:41.203Z,0.73
2022-09-09T06:33:14.051Z,1.05
2022-09-09T06:35:44.364Z,1.00
2022-09-09T06:38:14.508Z,0.90
2022-09-09T06:40:45.023Z,0.82
2022-09-09T06:43:15.441Z,1.13
2022-09-09T06:45:57.132Z,0.70
2022-09-09T06:48:30.114Z,0.65
2022-09-09T06:51:07.216Z,0.90
2022-09-09T06:53:38.696Z,0.80
2022-09-09T06:56:22.698Z,0.60
2022-09-09T07:01:31.512Z,0.70
2022-09-09T07:04:09.111Z,0.57
2022-09-09T07:06:44.172Z,0.63
2022-09-09T07:09:18.602Z,2.60
2022-09-09T07:11:53.791Z,0.88
2022-09-09T07:14:25.677Z,0.60
2022-09-09T07:17:02.654Z,0.25
2022-09-09T07:19:41.436Z,0.75
2022-09-09T07:22:11.745Z,0.57
2022-09-09T07:24:42.431Z,0.70
2022-09-09T07:27:12.590Z,0.60
2022-09-09T07:29:42.632Z,0.60
2022-09-09T07:32:13.839Z,0.32
2022-09-09T07:34:47.254Z,0.85
2022-09-09T07:37:18.021Z,0.77
2022-09-09T07:39:49.355Z,0.70
2022-09-09T07:42:21.237Z,0.65
2022-09-09T07:44:55.794Z,0.52
2022-09-09T07:47:26.003Z,0.93
2022-09-09T07:49:59.807Z,0.68
2022-09-09T07:52:34.237Z,0.80
2022-09-09T07:55:07.934Z,0.88
2022-09-09T07:57:38.603Z,0.57
2022-09-09T08:00:11.381Z,0.20
2022-09-09T08:02:45.669Z,0.60
2022-09-09T08:05:19.203Z,0.32
2022-09-09T08:07:49.528Z,0.22
2022-09-09T08:10:19.735Z,0.50
2022-09-09T08:13:14.856Z,0.25
2022-09-09T08:15:44.464Z,0.30
2022-09-09T08:18:15.149Z,0.22
2022-09-09T08:20:47.949Z,0.22
2022-09-09T08:23:18.687Z,0.63
2022-09-09T08:25:49.862Z,0.17
2022-09-09T08:28:19.988Z,0.65
2022-09-09T08:30:50.014Z,0.63
2022-09-09T08:33:20.502Z,0.52
2022-09-09T08:35:57.092Z,0.47
2022-09-09T08:38:28.101Z,0.32
2022-09-09T08:41:05.020Z,0.22
2022-09-09T08:43:35.948Z,0.30
2022-09-09T08:46:15.099Z,0.28
2022-09-09T08:48:50.473Z,0.50
2022-09-09T08:51:23.424Z,0.30
2022-09-09T08:56:31.310Z,0.17
2022-09-09T08:59:06.167Z,0.13
2022-09-09T09:01:49.882Z,0.20
2022-09-09T09:04:34.524Z,0.10
2022-09-09T09:07:18.864Z,0.10
2022-09-09T09:09:52.841Z,0.22
2022-09-09T09:12:24.889Z,0.63
2022-09-09T09:14:56.548Z,0.47
2022-09-09T09:17:30.670Z,0.15
2022-09-09T09:20:04.275Z,0.17
2022-09-09T09:22:43.207Z,0.20
2022-09-09T09:25:18.047Z,0.25
2022-09-09T09:27:51.321Z,0.20
2022-09-09T09:30:29.425Z,0.20
2022-09-09T09:33:06.449Z,0.22
2022-09-09T09:35:41.611Z,0.98
2022-09-09T09:41:12.272Z,0.20
2022-09-09T09:43:45.123Z,0.10
2022-09-09T09:46:26.859Z,0.13
2022-09-09T09:49:02.209Z,0.50
2022-09-09T09:51:36.559Z,0.22
2022-09-09T09:56:55.152Z,0.20
2022-09-09T09:59:41.099Z,0.38
2022-09-09T10:02:29.610Z,0.10
2022-09-09T10:05:10.016Z,0.10
2022-09-09T10:07:40.183Z,0.00
2022-09-09T10:10:17.303Z,0.00
2022-09-09T10:12:57.386Z,0.17
2022-09-09T10:15:34.282Z,0.20
2022-09-09T10:18:08.848Z,0.22
2022-09-09T10:20:45.497Z,0.40
2022-09-09T10:23:26.966Z,0.10
2022-09-09T10:26:16.377Z,1.40
2022-09-09T10:29:09.436Z,0.10
2022-09-09T10:31:44.472Z,0.10
2022-09-09T10:34:29.711Z,0.20
2022-09-09T10:37:02.115Z,0.82
2022-09-09T10:39:43.334Z,0.00
2022-09-09T10:42:17.738Z,0.10
2022-09-09T10:44:55.592Z,0.00
2022-09-09T10:47:40.572Z,0.10
2022-09-09T10:50:38.108Z,0.10
2022-09-09T10:53:26.344Z,0.03
2022-09-09T10:55:57.885Z,0.00
2022-09-09T10:58:37.587Z,0.20
2022-09-09T11:01:17.101Z,0.30
2022-09-09T11:03:48.315Z,0.20
2022-09-09T11:06:20.504Z,0.10
2022-09-09T11:08:53.805Z,0.08
2022-09-09T11:11:31.640Z,0.20
2022-09-09T11:14:06.369Z,0.17
2022-09-09T11:16:39.452Z,0.30
2022-09-09T11:19:19.117Z,0.40
2022-09-09T11:21:50.526Z,0.20
2022-09-09T11:24:27.404Z,0.10
2022-09-09T11:27:00.410Z,0.20
2022-09-09T11:29:45.084Z,0.20
2022-09-09T11:32:22.556Z,0.10
2022-09-09T11:35:00.350Z,0.30
2022-09-09T11:37:45.393Z,0.03
2022-09-09T11:40:21.249Z,0.10
2022-09-09T11:42:52.331Z,0.10
2022-09-09T11:45:30.917Z,0.00
2022-09-09T11:48:02.409Z,0.20
2022-09-09T11:50:37.488Z,0.43
2022-09-09T11:53:09.353Z,0.10
2022-09-09T11:55:39.839Z,0.00
2022-09-09T11:58:10.613Z,0.15
2022-09-09T12:00:45.423Z,0.15
2022-09-09T12:03:36.904Z,0.57
2022-09-09T12:06:14.461Z,0.20
2022-09-09T12:08:46.442Z,0.20
2022-09-09T12:11:28.212Z,0.52
2022-09-09T12:13:59.579Z,0.10
2022-09-09T12:16:38.353Z,0.20
2022-09-09T12:19:10.012Z,0.10
2022-09-09T12:21:44.534Z,0.30
2022-09-09T12:24:17.265Z,0.10
2022-09-09T12:26:54.208Z,0.22
2022-09-09T12:29:30.522Z,0.20
2022-09-09T12:32:06.484Z,0.10
2022-09-09T12:34:42.765Z,0.15
2022-09-09T12:37:24.088Z,0.00
2022-09-09T12:39:55.971Z,0.10
2022-09-09T12:42:26.996Z,0.00
2022-09-09T12:44:58.546Z,0.68
2022-09-09T12:47:39.659Z,0.08
2022-09-09T12:50:19.468Z,0.10
2022-09-09T12:52:50.690Z,0.03
2022-09-09T12:55:22.867Z,0.30
2022-09-09T12:57:53.962Z,0.00
2022-09-09T13:00:25.157Z,0.10
2022-09-09T13:03:00.057Z,0.08
2022-09-09T13:05:31.608Z,0.10
2022-09-09T13:08:08.629Z,0.13
2022-09-09T13:11:02.575Z,0.17
2022-09-09T13:13:33.908Z,0.13
2022-09-09T13:16:05.549Z,0.10
2022-09-09T13:18:39.193Z,0.10
2022-09-09T13:21:09.649Z,0.30
2022-09-09T13:23:40.939Z,0.08
2022-09-09T13:26:25.189Z,0.08
2022-09-09T13:28:56.893Z,0.05
2022-09-09T13:31:28.329Z,0.25
2022-09-09T13:34:01.166Z,0.20
2022-09-09T13:36:34.193Z,0.10
2022-09-09T13:39:04.877Z,0.00
2022-09-09T13:41:37.205Z,0.10
2022-09-09T13:44:08.349Z,0.00
2022-09-09T13:46:40.093Z,0.10
2022-09-09T13:49:26.392Z,0.00
2022-09-09T13:52:07.026Z,0.00
2022-09-09T13:54:37.196Z,0.00
2022-09-09T13:57:07.757Z,0.00
2022-09-09T14:00:01.172Z,0.10
2022-09-09T14:02:28.199Z,0.00
2022-09-09T14:05:00.656Z,0.00
2022-09-09T14:07:30.972Z,0.10
2022-09-09T14:10:01.322Z,0.00
2022-09-09T14:12:31.723Z,0.00
2022-09-09T14:15:02.828Z,0.00
2022-09-09T14:17:33.061Z,0.10
2022-09-09T14:20:06.661Z,0.10
2022-09-09T14:22:36.820Z,0.00
2022-09-09T14:25:07.676Z,0.08
2022-09-09T14:27:39.572Z,0.20
2022-09-09T14:30:10.429Z,0.10
2022-09-09T14:32:40.541Z,0.30
2022-09-09T14:35:13.532Z,0.30
2022-09-09T14:37:44.402Z,0.17
2022-09-09T14:40:15.450Z,0.20
2022-09-09T14:42:45.658Z,0.30
2022-09-09T14:45:16.166Z,0.10
2022-09-09T14:47:46.416Z,0.57
2022-09-09T14:50:19.253Z,0.30
2022-09-09T14:52:49.433Z,0.10
2022-09-09T14:55:20.189Z,0.22
2022-09-09T14:57:50.949Z,0.20
2022-09-09T15:00:21.081Z,0.22
2022-09-09T15:02:51.430Z,0.10
2022-09-09T15:05:25.296Z,0.15
2022-09-09T15:07:55.499Z,0.73
2022-09-09T15:10:25.642Z,0.17
2022-09-09T15:12:55.773Z,0.20
2022-09-09T15:15:25.929Z,0.82
2022-09-09T15:17:56.074Z,0.20
2022-09-09T15:20:28.783Z,0.00
2022-09-09T15:22:58.926Z,0.13
2022-09-09T15:25:29.228Z,0.05
2022-09-09T15:27:59.602Z,0.00
2022-09-09T15:30:29.440Z,0.35
2022-09-09T15:32:59.576Z,0.10
2022-09-09T15:35:33.806Z,0.50
2022-09-09T15:38:06.397Z,0.10
2022-09-09T15:40:36.504Z,0.10
2022-09-09T15:43:07.157Z,0.38
2022-09-09T15:45:37.288Z,0.00
2022-09-09T15:48:07.629Z,0.10
2022-09-09T15:50:41.240Z,0.20
2022-09-09T15:53:12.047Z,0.20
2022-09-09T15:55:42.195Z,0.13
2022-09-09T15:58:13.296Z,0.20
2022-09-09T16:00:43.473Z,0.10
2022-09-09T16:03:13.830Z,0.10
2022-09-09T16:05:46.568Z,0.40
2022-09-09T16:08:16.672Z,0.10
2022-09-09T16:10:46.912Z,0.10
2022-09-09T16:13:16.748Z,0.10
2022-09-09T16:15:46.975Z,0.30
2022-09-09T16:18:17.149Z,0.25
2022-09-09T16:20:57.738Z,0.03
2022-09-09T16:23:28.045Z,0.00
2022-09-09T16:26:02.501Z,0.10
2022-09-09T16:28:36.438Z,0.00
2022-09-09T16:31:08.656Z,0.10
2022-09-09T16:33:39.036Z,0.00
2022-09-09T16:36:13.236Z,0.00
2022-09-09T16:38:43.670Z,0.47
2022-09-09T16:41:14.340Z,0.00
2022-09-09T16:43:44.828Z,0.15
2022-09-09T16:46:17.622Z,0.00
2022-09-09T16:48:48.972Z,0.00
2022-09-09T16:51:24.340Z,0.00
2022-09-09T16:53:54.743Z,0.10
2022-09-09T16:56:26.279Z,0.00
2022-09-09T16:58:57.734Z,0.00
2022-09-09T17:01:28.838Z,0.00
2022-09-09T17:04:01.463Z,0.00
2022-09-09T17:06:35.530Z,0.00
2022-09-09T17:11:37.953Z,0.00
2022-09-09T17:14:10.276Z,0.22
2022-09-09T17:16:41.033Z,0.00
2022-09-09T17:19:11.969Z,0.00
2022-09-09T17:22:12.574Z,0.08
2022-09-09T17:24:36.485Z,0.00
2022-09-09T17:27:06.844Z,0.00
2022-09-09T17:29:37.411Z,0.00
2022-09-09T17:32:08.918Z,0.00
2022-09-09T17:34:39.899Z,0.00
2022-09-09T17:37:13.149Z,0.00
2022-09-09T17:39:43.383Z,0.10
2022-09-09T17:42:13.572Z,0.00
2022-09-09T17:44:43.959Z,0.00
2022-09-09T17:47:14.046Z,0.00
2022-09-09T17:49:44.218Z,0.00
2022-09-09T17:52:16.979Z,0.00
2022-09-09T17:54:47.108Z,0.00
2022-09-09T17:57:18.429Z,0.00
2022-09-09T17:59:48.558Z,0.10
2022-09-09T18:02:18.794Z,0.00
2022-09-09T18:04:49.250Z,0.00
2022-09-09T18:07:22.057Z,0.00
2022-09-09T18:09:52.621Z,0.00
2022-09-09T18:12:22.833Z,0.00
2022-09-09T18:14:54.184Z,0.00
2022-09-09T18:17:25.465Z,0.22
2022-09-09T18:19:55.346Z,0.10
2022-09-09T18:22:28.065Z,0.13
2022-09-09T18:24:58.431Z,0.15
2022-09-09T18:27:28.636Z,0.08
2022-09-09T18:29:58.825Z,0.00
2022-09-09T18:32:30.461Z,0.00
2022-09-09T18:35:01.589Z,0.00
2022-09-09T18:37:36.109Z,0.10
2022-09-09T18:40:07.747Z,0.00
2022-09-09T18:42:37.941Z,0.10
2022-09-09T18:45:08.626Z,0.05
2022-09-09T18:47:39.868Z,0.00
2022-09-09T18:50:11.500Z,0.28
2022-09-09T18:52:59.032Z,0.00
2022-09-09T18:55:36.545Z,0.08
2022-09-09T19:01:19.768Z,0.10
2022-09-09T19:04:15.416Z,0.10
2022-09-09T19:07:02.003Z,0.30
2022-09-09T19:09:38.326Z,0.10
2022-09-09T19:15:12.691Z,0.00
2022-09-09T19:17:46.234Z,0.13
2022-09-09T19:20:21.055Z,0.28
2022-09-09T19:23:06.853Z,0.00
2022-09-09T19:26:21.513Z,0.00
2022-09-09T19:29:00.061Z,0.10
2022-09-09T19:31:48.886Z,0.00
2022-09-09T19:34:49.071Z,0.10
2022-09-09T19:37:33.032Z,0.10
2022-09-09T19:40:27.385Z,0.08
2022-09-09T19:43:15.610Z,0.10
2022-09-09T19:45:50.842Z,0.05
2022-09-09T19:48:28.800Z,0.10
2022-09-09T19:51:10.305Z,0.25
2022-09-09T19:53:44.806Z,0.05
2022-09-09T19:59:45.690Z,0.10
2022-09-09T20:02:19.629Z,0.28
2022-09-09T20:04:49.852Z,0.28
2022-09-09T20:07:19.773Z,0.10
2022-09-09T20:09:49.900Z,0.35
2022-09-09T20:12:20.073Z,0.00
2022-09-09T20:14:49.921Z,0.00
2022-09-09T20:17:22.361Z,0.05
2022-09-09T20:19:52.480Z,0.43
2022-09-09T20:22:22.407Z,0.20
2022-09-09T20:24:52.521Z,0.20
2022-09-09T20:27:22.632Z,0.10
2022-09-09T20:29:52.759Z,0.20
2022-09-09T20:32:25.178Z,0.28
2022-09-09T20:34:55.350Z,0.68
2022-09-09T20:37:25.918Z,0.50
2022-09-09T20:39:56.610Z,0.60
2022-09-09T20:42:26.996Z,0.20
2022-09-09T20:44:57.158Z,0.20
2022-09-09T20:47:29.880Z,0.30
2022-09-09T20:50:00.528Z,0.10
2022-09-09T20:52:30.645Z,0.13
2022-09-09T20:55:00.745Z,0.13
2022-09-09T20:57:31.162Z,0.30
2022-09-09T21:00:01.280Z,0.30
2022-09-09T21:02:34.025Z,0.47
2022-09-09T21:05:04.192Z,0.30
2022-09-09T21:07:34.334Z,0.52
2022-09-09T21:10:04.491Z,0.20
2022-09-09T21:12:34.349Z,0.10
2022-09-09T21:15:04.447Z,0.30
2022-09-09T21:17:37.461Z,0.30
2022-09-09T21:20:07.859Z,0.38
2022-09-09T21:22:38.040Z,0.40
2022-09-09T21:25:09.475Z,0.30
2022-09-09T21:27:39.616Z,0.40
2022-09-09T21:30:10.710Z,0.35
2022-09-09T21:32:43.593Z,0.35
2022-09-09T21:35:14.594Z,1.40
2022-09-09T21:37:44.957Z,0.55
2022-09-09T21:40:14.796Z,0.30
2022-09-09T21:42:45.980Z,0.22
2022-09-09T21:45:16.353Z,0.13
2022-09-09T21:47:51.128Z,0.47
2022-09-09T21:50:26.664Z,0.45
2022-09-09T21:52:58.586Z,0.30
2022-09-09T21:55:28.802Z,0.30
2022-09-09T21:57:59.747Z,0.15
2022-09-09T22:00:29.681Z,0.10
2022-09-09T22:03:02.915Z,0.30
2022-09-09T22:05:33.132Z,0.07
2022-09-09T22:08:03.285Z,0.08
2022-09-09T22:10:33.445Z,0.00
2022-09-09T22:13:03.585Z,0.10
2022-09-09T22:15:33.753Z,0.35
2022-09-09T22:18:07.467Z,0.40
2022-09-09T22:20:42.586Z,0.20
2022-09-09T22:23:12.672Z,0.20
2022-09-09T22:25:44.745Z,0.20
2022-09-09T22:28:14.885Z,0.25
2022-09-09T22:30:45.012Z,0.20
2022-09-09T22:33:17.829Z,0.10
2022-09-09T22:35:48.097Z,0.10
2022-09-09T22:38:18.488Z,0.20
2022-09-09T22:40:48.937Z,0.10
2022-09-09T22:43:20.381Z,0.10
2022-09-09T22:45:51.024Z,0.20
2022-09-09T22:48:24.644Z,0.13
2022-09-09T22:50:54.810Z,0.10
2022-09-09T22:53:25.632Z,0.10
2022-09-09T22:56:00.230Z,0.20
2022-09-09T22:58:31.224Z,0.30
2022-09-09T23:01:02.220Z,0.32
2022-09-09T23:03:35.075Z,0.30
2022-09-09T23:06:05.728Z,0.40
2022-09-09T23:08:36.952Z,0.55
2022-09-09T23:11:09.274Z,0.15
2022-09-09T23:13:41.529Z,0.20
2022-09-09T23:16:12.642Z,0.30
2022-09-09T23:18:45.425Z,0.38
2022-09-09T23:21:16.424Z,0.47
2022-09-09T23:23:46.734Z,0.30
2022-09-09T23:26:20.945Z,0.25
2022-09-09T23:28:51.928Z,0.95
2022-09-09T23:31:24.944Z,0.30
2022-09-09T23:33:58.233Z,0.75
2022-09-09T23:36:29.636Z,0.50
2022-09-09T23:39:00.323Z,0.57
2022-09-09T23:41:30.465Z,0.22
2022-09-09T23:44:00.888Z,0.22
2022-09-09T23:46:31.614Z,0.55
2022-09-09T23:49:05.047Z,0.45
2022-09-09T23:51:35.470Z,0.73
2022-09-09T23:54:06.106Z,0.73
2022-09-09T23:56:37.782Z,0.57
2022-09-09T23:59:08.280Z,0.40
